sensor_id;sensor_type;location;lat;lon;timestamp;temperature;humidity
1716;DHT22;855;48.824;9.220;2023-05-20T00:00:34;13.60;88.30
1716;DHT22;855;48.824;9.220;2023-05-20T00:03:01;13.50;88.50
1716;DHT22;855;48.824;9.220;2023-05-20T00:05:29;13.50;88.90
1716;DHT22;855;48.824;9.220;2023-05-20T00:07:55;13.40;89.00
1716;DHT22;855;48.824;9.220;2023-05-20T00:10:24;13.40;89.10
1716;DHT22;855;48.824;9.220;2023-05-20T00:12:51;13.30;89.30
1716;DHT22;855;48.824;9.220;2023-05-20T00:15:18;13.30;89.50
1716;DHT22;855;48.824;9.220;2023-05-20T00:17:45;13.40;89.50
1716;DHT22;855;48.824;9.220;2023-05-20T00:20:11;13.40;89.30
1716;DHT22;855;48.824;9.220;2023-05-20T00:22:38;13.40;89.10
1716;DHT22;855;48.824;9.220;2023-05-20T00:25:06;13.40;89.30
1716;DHT22;855;48.824;9.220;2023-05-20T00:27:34;13.40;89.30
1716;DHT22;855;48.824;9.220;2023-05-20T00:30:01;13.40;89.50
1716;DHT22;855;48.824;9.220;2023-05-20T00:32:28;13.40;89.40
1716;DHT22;855;48.824;9.220;2023-05-20T00:34:55;13.30;89.50
1716;DHT22;855;48.824;9.220;2023-05-20T00:37:22;13.30;89.90
1716;DHT22;855;48.824;9.220;2023-05-20T00:39:49;13.30;90.10
1716;DHT22;855;48.824;9.220;2023-05-20T00:42:19;13.20;90.30
1716;DHT22;855;48.824;9.220;2023-05-20T00:44:48;13.20;90.50
1716;DHT22;855;48.824;9.220;2023-05-20T00:47:15;13.10;90.70
1716;DHT22;855;48.824;9.220;2023-05-20T00:49:43;13.10;91.00
1716;DHT22;855;48.824;9.220;2023-05-20T00:52:11;13.10;91.10
1716;DHT22;855;48.824;9.220;2023-05-20T00:54:38;13.10;91.20
1716;DHT22;855;48.824;9.220;2023-05-20T00:57:06;13.20;91.40
1716;DHT22;855;48.824;9.220;2023-05-20T00:59:33;13.20;91.30
1716;DHT22;855;48.824;9.220;2023-05-20T01:02:02;13.30;91.30
1716;DHT22;855;48.824;9.220;2023-05-20T01:04:29;13.30;91.20
1716;DHT22;855;48.824;9.220;2023-05-20T01:06:57;13.20;91.20
1716;DHT22;855;48.824;9.220;2023-05-20T01:09:24;13.20;91.30
1716;DHT22;855;48.824;9.220;2023-05-20T01:11:55;13.20;91.60
1716;DHT22;855;48.824;9.220;2023-05-20T01:14:26;13.30;91.50
1716;DHT22;855;48.824;9.220;2023-05-20T01:16:57;13.30;91.50
1716;DHT22;855;48.824;9.220;2023-05-20T01:19:34;13.30;91.30
1716;DHT22;855;48.824;9.220;2023-05-20T01:22:02;13.50;91.20
1716;DHT22;855;48.824;9.220;2023-05-20T01:24:32;13.50;90.90
1716;DHT22;855;48.824;9.220;2023-05-20T01:26:59;13.60;90.60
1716;DHT22;855;48.824;9.220;2023-05-20T01:29:26;13.70;90.50
1716;DHT22;855;48.824;9.220;2023-05-20T01:31:54;13.70;90.30
1716;DHT22;855;48.824;9.220;2023-05-20T01:34:23;13.80;89.90
1716;DHT22;855;48.824;9.220;2023-05-20T01:36:50;13.60;89.80
1716;DHT22;855;48.824;9.220;2023-05-20T01:39:18;13.60;90.20
1716;DHT22;855;48.824;9.220;2023-05-20T01:41:46;13.60;90.10
1716;DHT22;855;48.824;9.220;2023-05-20T01:44:14;13.60;90.20
1716;DHT22;855;48.824;9.220;2023-05-20T01:46:41;13.60;90.10
1716;DHT22;855;48.824;9.220;2023-05-20T01:49:08;13.50;90.20
1716;DHT22;855;48.824;9.220;2023-05-20T01:51:34;13.50;90.30
1716;DHT22;855;48.824;9.220;2023-05-20T01:54:02;13.50;90.30
1716;DHT22;855;48.824;9.220;2023-05-20T01:56:29;13.60;90.20
1716;DHT22;855;48.824;9.220;2023-05-20T01:58:57;13.50;90.10
1716;DHT22;855;48.824;9.220;2023-05-20T02:01:24;13.40;90.10
1716;DHT22;855;48.824;9.220;2023-05-20T02:03:51;13.40;90.10
1716;DHT22;855;48.824;9.220;2023-05-20T02:06:18;13.40;90.10
1716;DHT22;855;48.824;9.220;2023-05-20T02:08:45;13.40;90.20
1716;DHT22;855;48.824;9.220;2023-05-20T02:11:12;13.40;90.30
1716;DHT22;855;48.824;9.220;2023-05-20T02:13:38;13.50;90.20
1716;DHT22;855;48.824;9.220;2023-05-20T02:16:07;13.40;90.10
1716;DHT22;855;48.824;9.220;2023-05-20T02:18:33;13.50;90.10
1716;DHT22;855;48.824;9.220;2023-05-20T02:21:01;13.50;89.70
1716;DHT22;855;48.824;9.220;2023-05-20T02:23:28;13.60;89.40
1716;DHT22;855;48.824;9.220;2023-05-20T02:25:56;13.60;89.30
1716;DHT22;855;48.824;9.220;2023-05-20T02:28:23;13.60;89.10
1716;DHT22;855;48.824;9.220;2023-05-20T02:30:49;13.60;89.10
1716;DHT22;855;48.824;9.220;2023-05-20T02:33:18;13.70;89.00
1716;DHT22;855;48.824;9.220;2023-05-20T02:35:45;13.70;89.00
1716;DHT22;855;48.824;9.220;2023-05-20T02:38:12;13.70;89.00
1716;DHT22;855;48.824;9.220;2023-05-20T02:40:42;13.60;89.70
1716;DHT22;855;48.824;9.220;2023-05-20T02:43:09;13.60;89.80
1716;DHT22;855;48.824;9.220;2023-05-20T02:45:36;13.60;89.70
1716;DHT22;855;48.824;9.220;2023-05-20T02:48:03;13.60;89.70
1716;DHT22;855;48.824;9.220;2023-05-20T02:50:31;13.60;89.80
1716;DHT22;855;48.824;9.220;2023-05-20T02:52:58;13.60;89.80
1716;DHT22;855;48.824;9.220;2023-05-20T02:55:25;13.60;89.70
1716;DHT22;855;48.824;9.220;2023-05-20T02:57:52;13.60;89.70
1716;DHT22;855;48.824;9.220;2023-05-20T03:00:19;13.70;89.70
1716;DHT22;855;48.824;9.220;2023-05-20T03:02:48;13.70;89.50
1716;DHT22;855;48.824;9.220;2023-05-20T03:05:15;13.70;89.40
1716;DHT22;855;48.824;9.220;2023-05-20T03:07:44;13.70;89.50
1716;DHT22;855;48.824;9.220;2023-05-20T03:10:13;13.70;89.40
1716;DHT22;855;48.824;9.220;2023-05-20T03:12:40;13.70;89.30
1716;DHT22;855;48.824;9.220;2023-05-20T03:15:07;13.70;89.30
1716;DHT22;855;48.824;9.220;2023-05-20T03:17:35;13.70;89.10
1716;DHT22;855;48.824;9.220;2023-05-20T03:20:02;13.70;89.10
1716;DHT22;855;48.824;9.220;2023-05-20T03:22:31;13.70;89.10
1716;DHT22;855;48.824;9.220;2023-05-20T03:24:59;13.70;89.30
1716;DHT22;855;48.824;9.220;2023-05-20T03:27:26;13.60;89.30
1716;DHT22;855;48.824;9.220;2023-05-20T03:29:53;13.60;89.50
1716;DHT22;855;48.824;9.220;2023-05-20T03:32:20;13.50;89.50
1716;DHT22;855;48.824;9.220;2023-05-20T03:34:47;13.50;90.10
1716;DHT22;855;48.824;9.220;2023-05-20T03:37:14;13.50;90.10
1716;DHT22;855;48.824;9.220;2023-05-20T03:39:41;13.50;90.10
1716;DHT22;855;48.824;9.220;2023-05-20T03:42:09;13.40;90.30
1716;DHT22;855;48.824;9.220;2023-05-20T03:44:36;13.30;90.60
1716;DHT22;855;48.824;9.220;2023-05-20T03:47:03;13.30;90.60
1716;DHT22;855;48.824;9.220;2023-05-20T03:49:30;13.30;90.60
1716;DHT22;855;48.824;9.220;2023-05-20T03:51:57;13.40;90.40
1716;DHT22;855;48.824;9.220;2023-05-20T03:54:24;13.40;90.40
1716;DHT22;855;48.824;9.220;2023-05-20T03:56:50;13.40;90.30
1716;DHT22;855;48.824;9.220;2023-05-20T03:59:19;13.20;90.80
1716;DHT22;855;48.824;9.220;2023-05-20T04:01:46;13.10;91.40
1716;DHT22;855;48.824;9.220;2023-05-20T04:04:13;13.10;91.50
1716;DHT22;855;48.824;9.220;2023-05-20T04:06:40;13.20;91.50
1716;DHT22;855;48.824;9.220;2023-05-20T04:09:07;13.20;91.40
1716;DHT22;855;48.824;9.220;2023-05-20T04:11:34;13.30;91.30
1716;DHT22;855;48.824;9.220;2023-05-20T04:14:01;13.30;91.20
1716;DHT22;855;48.824;9.220;2023-05-20T04:16:29;13.30;91.30
1716;DHT22;855;48.824;9.220;2023-05-20T04:18:56;13.30;91.40
1716;DHT22;855;48.824;9.220;2023-05-20T04:21:23;13.40;91.30
1716;DHT22;855;48.824;9.220;2023-05-20T04:23:50;13.40;91.30
1716;DHT22;855;48.824;9.220;2023-05-20T04:26:17;13.50;91.40
1716;DHT22;855;48.824;9.220;2023-05-20T04:28:45;13.50;91.10
1716;DHT22;855;48.824;9.220;2023-05-20T04:31:13;13.60;91.10
1716;DHT22;855;48.824;9.220;2023-05-20T04:33:41;13.60;90.90
1716;DHT22;855;48.824;9.220;2023-05-20T04:36:09;13.70;90.90
1716;DHT22;855;48.824;9.220;2023-05-20T04:38:40;13.80;90.90
1716;DHT22;855;48.824;9.220;2023-05-20T04:41:09;13.90;90.70
1716;DHT22;855;48.824;9.220;2023-05-20T04:43:35;14.00;90.60
1716;DHT22;855;48.824;9.220;2023-05-20T04:46:04;14.00;90.50
1716;DHT22;855;48.824;9.220;2023-05-20T04:48:31;14.00;90.70
1716;DHT22;855;48.824;9.220;2023-05-20T04:51:00;14.00;90.70
1716;DHT22;855;48.824;9.220;2023-05-20T04:53:27;14.10;90.80
1716;DHT22;855;48.824;9.220;2023-05-20T04:55:55;14.20;90.40
1716;DHT22;855;48.824;9.220;2023-05-20T04:58:22;14.30;90.20
1716;DHT22;855;48.824;9.220;2023-05-20T05:00:50;14.40;90.40
1716;DHT22;855;48.824;9.220;2023-05-20T05:03:17;14.60;90.50
1716;DHT22;855;48.824;9.220;2023-05-20T05:05:44;14.90;89.90
1716;DHT22;855;48.824;9.220;2023-05-20T05:08:12;15.10;88.90
1716;DHT22;855;48.824;9.220;2023-05-20T05:10:39;15.40;87.90
1716;DHT22;855;48.824;9.220;2023-05-20T05:13:06;15.80;86.20
1716;DHT22;855;48.824;9.220;2023-05-20T05:15:33;16.10;84.20
1716;DHT22;855;48.824;9.220;2023-05-20T05:18:00;16.20;82.50
1716;DHT22;855;48.824;9.220;2023-05-20T05:20:27;16.40;80.90
1716;DHT22;855;48.824;9.220;2023-05-20T05:22:54;16.40;80.00
1716;DHT22;855;48.824;9.220;2023-05-20T05:25:22;16.50;80.30
1716;DHT22;855;48.824;9.220;2023-05-20T05:27:49;16.60;79.90
1716;DHT22;855;48.824;9.220;2023-05-20T05:30:16;16.80;79.50
1716;DHT22;855;48.824;9.220;2023-05-20T05:32:43;16.80;78.70
1716;DHT22;855;48.824;9.220;2023-05-20T05:35:10;17.00;78.40
1716;DHT22;855;48.824;9.220;2023-05-20T05:37:37;17.10;78.20
1716;DHT22;855;48.824;9.220;2023-05-20T05:40:05;17.20;78.20
1716;DHT22;855;48.824;9.220;2023-05-20T05:42:33;17.20;77.60
1716;DHT22;855;48.824;9.220;2023-05-20T05:45:00;17.20;77.80
1716;DHT22;855;48.824;9.220;2023-05-20T05:47:27;17.40;77.10
1716;DHT22;855;48.824;9.220;2023-05-20T05:49:57;17.50;76.70
1716;DHT22;855;48.824;9.220;2023-05-20T05:52:24;17.50;76.60
1716;DHT22;855;48.824;9.220;2023-05-20T05:54:51;17.60;77.00
1716;DHT22;855;48.824;9.220;2023-05-20T05:57:17;17.80;76.40
1716;DHT22;855;48.824;9.220;2023-05-20T05:59:46;17.90;75.80
1716;DHT22;855;48.824;9.220;2023-05-20T06:02:13;17.90;75.40
1716;DHT22;855;48.824;9.220;2023-05-20T06:04:40;17.90;75.10
1716;DHT22;855;48.824;9.220;2023-05-20T06:07:06;17.90;75.40
1716;DHT22;855;48.824;9.220;2023-05-20T06:09:33;17.60;75.80
1716;DHT22;855;48.824;9.220;2023-05-20T06:12:00;17.50;76.40
1716;DHT22;855;48.824;9.220;2023-05-20T06:14:27;17.50;76.80
1716;DHT22;855;48.824;9.220;2023-05-20T06:16:56;17.60;76.70
1716;DHT22;855;48.824;9.220;2023-05-20T06:19:22;17.80;76.40
1716;DHT22;855;48.824;9.220;2023-05-20T06:21:49;17.90;76.20
1716;DHT22;855;48.824;9.220;2023-05-20T06:24:18;18.00;75.80
1716;DHT22;855;48.824;9.220;2023-05-20T06:26:45;18.00;75.30
1716;DHT22;855;48.824;9.220;2023-05-20T06:29:14;18.20;75.10
1716;DHT22;855;48.824;9.220;2023-05-20T06:31:41;18.30;75.40
1716;DHT22;855;48.824;9.220;2023-05-20T06:34:09;18.50;73.70
1716;DHT22;855;48.824;9.220;2023-05-20T06:36:35;18.50;74.20
1716;DHT22;855;48.824;9.220;2023-05-20T06:39:02;18.40;74.20
1716;DHT22;855;48.824;9.220;2023-05-20T06:41:30;18.40;74.90
1716;DHT22;855;48.824;9.220;2023-05-20T06:43:57;18.60;73.90
1716;DHT22;855;48.824;9.220;2023-05-20T06:46:24;18.70;73.90
1716;DHT22;855;48.824;9.220;2023-05-20T06:48:51;18.80;74.30
1716;DHT22;855;48.824;9.220;2023-05-20T06:51:19;18.90;72.90
1716;DHT22;855;48.824;9.220;2023-05-20T06:53:46;18.80;72.50
1716;DHT22;855;48.824;9.220;2023-05-20T06:56:13;18.80;72.30
1716;DHT22;855;48.824;9.220;2023-05-20T06:58:40;18.80;72.70
1716;DHT22;855;48.824;9.220;2023-05-20T07:01:07;18.90;72.50
1716;DHT22;855;48.824;9.220;2023-05-20T07:03:33;18.90;72.20
1716;DHT22;855;48.824;9.220;2023-05-20T07:06:00;18.80;71.90
1716;DHT22;855;48.824;9.220;2023-05-20T07:08:28;18.60;73.30
1716;DHT22;855;48.824;9.220;2023-05-20T07:10:55;18.60;73.80
1716;DHT22;855;48.824;9.220;2023-05-20T07:13:22;18.60;73.00
1716;DHT22;855;48.824;9.220;2023-05-20T07:15:50;18.60;73.10
1716;DHT22;855;48.824;9.220;2023-05-20T07:18:17;18.60;73.00
1716;DHT22;855;48.824;9.220;2023-05-20T07:20:44;18.70;73.90
1716;DHT22;855;48.824;9.220;2023-05-20T07:23:37;18.90;73.30
1716;DHT22;855;48.824;9.220;2023-05-20T07:26:04;18.80;71.80
1716;DHT22;855;48.824;9.220;2023-05-20T07:28:31;18.80;72.90
1716;DHT22;855;48.824;9.220;2023-05-20T07:30:59;18.90;72.60
1716;DHT22;855;48.824;9.220;2023-05-20T07:33:25;18.80;71.60
1716;DHT22;855;48.824;9.220;2023-05-20T07:36:00;18.90;72.30
1716;DHT22;855;48.824;9.220;2023-05-20T07:38:32;19.40;71.20
1716;DHT22;855;48.824;9.220;2023-05-20T07:41:00;19.70;69.80
1716;DHT22;855;48.824;9.220;2023-05-20T07:43:27;20.00;69.80
1716;DHT22;855;48.824;9.220;2023-05-20T07:45:54;20.10;68.60
1716;DHT22;855;48.824;9.220;2023-05-20T07:48:21;20.00;68.50
1716;DHT22;855;48.824;9.220;2023-05-20T07:50:48;19.80;68.80
1716;DHT22;855;48.824;9.220;2023-05-20T07:53:15;19.80;69.30
1716;DHT22;855;48.824;9.220;2023-05-20T07:56:03;20.00;69.00
1716;DHT22;855;48.824;9.220;2023-05-20T07:58:30;20.20;69.20
1716;DHT22;855;48.824;9.220;2023-05-20T08:00:57;19.70;69.40
1716;DHT22;855;48.824;9.220;2023-05-20T08:03:24;19.20;71.00
1716;DHT22;855;48.824;9.220;2023-05-20T08:05:51;19.00;72.60
1716;DHT22;855;48.824;9.220;2023-05-20T08:08:18;19.00;72.20
1716;DHT22;855;48.824;9.220;2023-05-20T08:10:45;19.00;72.60
1716;DHT22;855;48.824;9.220;2023-05-20T08:13:14;19.00;71.90
1716;DHT22;855;48.824;9.220;2023-05-20T08:15:40;19.20;71.60
1716;DHT22;855;48.824;9.220;2023-05-20T08:18:07;19.30;71.30
1716;DHT22;855;48.824;9.220;2023-05-20T08:20:34;19.40;71.00
1716;DHT22;855;48.824;9.220;2023-05-20T08:23:01;19.20;71.20
1716;DHT22;855;48.824;9.220;2023-05-20T08:25:28;19.00;71.40
1716;DHT22;855;48.824;9.220;2023-05-20T08:27:55;18.80;72.20
1716;DHT22;855;48.824;9.220;2023-05-20T08:30:23;18.80;73.00
1716;DHT22;855;48.824;9.220;2023-05-20T08:32:50;19.00;72.10
1716;DHT22;855;48.824;9.220;2023-05-20T08:35:17;19.30;71.60
1716;DHT22;855;48.824;9.220;2023-05-20T08:37:44;19.30;69.80
1716;DHT22;855;48.824;9.220;2023-05-20T08:40:12;19.10;71.00
1716;DHT22;855;48.824;9.220;2023-05-20T08:42:41;19.40;70.80
1716;DHT22;855;48.824;9.220;2023-05-20T08:45:10;19.60;70.40
1716;DHT22;855;48.824;9.220;2023-05-20T08:47:40;19.70;69.60
1716;DHT22;855;48.824;9.220;2023-05-20T08:50:08;19.80;68.90
1716;DHT22;855;48.824;9.220;2023-05-20T08:52:37;19.90;68.20
1716;DHT22;855;48.824;9.220;2023-05-20T08:55:06;20.10;68.40
1716;DHT22;855;48.824;9.220;2023-05-20T08:57:36;20.20;67.50
1716;DHT22;855;48.824;9.220;2023-05-20T09:00:04;20.50;66.10
1716;DHT22;855;48.824;9.220;2023-05-20T09:02:39;20.70;65.50
1716;DHT22;855;48.824;9.220;2023-05-20T09:05:06;20.70;65.20
1716;DHT22;855;48.824;9.220;2023-05-20T09:10:08;20.70;65.30
1716;DHT22;855;48.824;9.220;2023-05-20T09:12:36;20.60;65.30
1716;DHT22;855;48.824;9.220;2023-05-20T09:15:04;20.40;66.50
1716;DHT22;855;48.824;9.220;2023-05-20T09:17:31;20.40;65.60
1716;DHT22;855;48.824;9.220;2023-05-20T09:19:59;20.60;65.20
1716;DHT22;855;48.824;9.220;2023-05-20T09:22:27;20.80;65.70
1716;DHT22;855;48.824;9.220;2023-05-20T09:24:54;21.10;64.20
1716;DHT22;855;48.824;9.220;2023-05-20T09:27:21;21.50;64.00
1716;DHT22;855;48.824;9.220;2023-05-20T09:29:58;21.80;62.60
1716;DHT22;855;48.824;9.220;2023-05-20T09:32:26;22.20;62.20
1716;DHT22;855;48.824;9.220;2023-05-20T09:34:53;22.50;60.40
1716;DHT22;855;48.824;9.220;2023-05-20T09:37:23;22.40;59.70
1716;DHT22;855;48.824;9.220;2023-05-20T09:39:55;22.60;59.80
1716;DHT22;855;48.824;9.220;2023-05-20T09:42:26;22.70;61.00
1716;DHT22;855;48.824;9.220;2023-05-20T09:48:17;23.00;59.20
1716;DHT22;855;48.824;9.220;2023-05-20T09:54:16;22.80;58.80
1716;DHT22;855;48.824;9.220;2023-05-20T10:00:14;22.90;58.40
1716;DHT22;855;48.824;9.220;2023-05-20T10:03:01;23.10;58.90
1716;DHT22;855;48.824;9.220;2023-05-20T10:05:30;22.80;59.40
1716;DHT22;855;48.824;9.220;2023-05-20T10:10:36;22.70;58.80
1716;DHT22;855;48.824;9.220;2023-05-20T10:17:39;22.60;59.80
1716;DHT22;855;48.824;9.220;2023-05-20T10:20:07;22.40;59.70
1716;DHT22;855;48.824;9.220;2023-05-20T10:22:54;22.10;60.40
1716;DHT22;855;48.824;9.220;2023-05-20T10:25:24;22.30;60.40
1716;DHT22;855;48.824;9.220;2023-05-20T10:28:07;22.40;60.30
1716;DHT22;855;48.824;9.220;2023-05-20T10:30:34;22.40;61.60
1716;DHT22;855;48.824;9.220;2023-05-20T10:33:04;22.50;59.80
1716;DHT22;855;48.824;9.220;2023-05-20T10:38:54;22.40;59.40
1716;DHT22;855;48.824;9.220;2023-05-20T10:41:38;22.50;60.00
1716;DHT22;855;48.824;9.220;2023-05-20T10:44:06;23.00;59.00
1716;DHT22;855;48.824;9.220;2023-05-20T10:46:34;23.20;57.20
1716;DHT22;855;48.824;9.220;2023-05-20T10:49:24;23.10;56.70
1716;DHT22;855;48.824;9.220;2023-05-20T10:51:59;23.00;57.40
1716;DHT22;855;48.824;9.220;2023-05-20T10:54:26;23.20;57.40
1716;DHT22;855;48.824;9.220;2023-05-20T10:56:54;23.10;57.90
1716;DHT22;855;48.824;9.220;2023-05-20T10:59:23;23.00;57.00
1716;DHT22;855;48.824;9.220;2023-05-20T11:02:10;23.00;58.30
1716;DHT22;855;48.824;9.220;2023-05-20T11:15:19;23.40;56.90
1716;DHT22;855;48.824;9.220;2023-05-20T11:17:52;23.10;57.90
1716;DHT22;855;48.824;9.220;2023-05-20T11:20:19;23.10;56.80
1716;DHT22;855;48.824;9.220;2023-05-20T11:23:01;23.10;57.20
1716;DHT22;855;48.824;9.220;2023-05-20T11:29:03;23.20;56.00
1716;DHT22;855;48.824;9.220;2023-05-20T11:31:58;23.20;56.00
1716;DHT22;855;48.824;9.220;2023-05-20T11:34:31;23.20;56.70
1716;DHT22;855;48.824;9.220;2023-05-20T11:37:06;23.10;56.80
1716;DHT22;855;48.824;9.220;2023-05-20T11:43:12;23.30;55.90
1716;DHT22;855;48.824;9.220;2023-05-20T11:49:46;23.50;54.20
1716;DHT22;855;48.824;9.220;2023-05-20T11:52:13;23.70;54.70
1716;DHT22;855;48.824;9.220;2023-05-20T11:54:40;23.70;54.90
1716;DHT22;855;48.824;9.220;2023-05-20T11:57:13;23.50;55.30
1716;DHT22;855;48.824;9.220;2023-05-20T11:59:40;23.40;56.00
1716;DHT22;855;48.824;9.220;2023-05-20T12:02:07;23.40;56.00
1716;DHT22;855;48.824;9.220;2023-05-20T12:04:38;23.10;55.70
1716;DHT22;855;48.824;9.220;2023-05-20T12:07:14;23.30;56.00
1716;DHT22;855;48.824;9.220;2023-05-20T12:09:41;23.30;55.20
1716;DHT22;855;48.824;9.220;2023-05-20T12:12:08;23.40;55.80
1716;DHT22;855;48.824;9.220;2023-05-20T12:14:38;23.50;54.90
1716;DHT22;855;48.824;9.220;2023-05-20T12:17:05;23.70;54.70
1716;DHT22;855;48.824;9.220;2023-05-20T12:19:32;23.80;54.20
1716;DHT22;855;48.824;9.220;2023-05-20T12:21:59;24.10;53.80
1716;DHT22;855;48.824;9.220;2023-05-20T12:24:47;24.30;53.30
1716;DHT22;855;48.824;9.220;2023-05-20T12:27:48;24.60;52.60
1716;DHT22;855;48.824;9.220;2023-05-20T12:30:16;24.90;52.90
1716;DHT22;855;48.824;9.220;2023-05-20T12:32:43;25.00;52.60
1716;DHT22;855;48.824;9.220;2023-05-20T12:35:11;25.10;52.30
1716;DHT22;855;48.824;9.220;2023-05-20T12:37:38;25.20;51.70
1716;DHT22;855;48.824;9.220;2023-05-20T12:40:09;25.10;51.10
1716;DHT22;855;48.824;9.220;2023-05-20T12:43:10;25.10;51.10
1716;DHT22;855;48.824;9.220;2023-05-20T12:49:04;24.30;52.80
1716;DHT22;855;48.824;9.220;2023-05-20T12:55:06;24.70;51.80
1716;DHT22;855;48.824;9.220;2023-05-20T13:07:45;24.80;51.80
1716;DHT22;855;48.824;9.220;2023-05-20T13:13:35;24.80;52.20
1716;DHT22;855;48.824;9.220;2023-05-20T13:19:36;25.40;51.80
1716;DHT22;855;48.824;9.220;2023-05-20T13:25:53;25.90;48.40
1716;DHT22;855;48.824;9.220;2023-05-20T13:31:58;25.80;47.50
1716;DHT22;855;48.824;9.220;2023-05-20T13:37:59;25.80;48.20
1716;DHT22;855;48.824;9.220;2023-05-20T13:40:26;25.70;47.80
1716;DHT22;855;48.824;9.220;2023-05-20T13:43:02;25.50;47.70
1716;DHT22;855;48.824;9.220;2023-05-20T13:45:29;25.30;48.60
1716;DHT22;855;48.824;9.220;2023-05-20T13:47:56;25.50;49.30
1716;DHT22;855;48.824;9.220;2023-05-20T13:50:23;25.70;47.30
1716;DHT22;855;48.824;9.220;2023-05-20T13:52:50;26.00;47.20
1716;DHT22;855;48.824;9.220;2023-05-20T13:55:27;26.10;46.70
1716;DHT22;855;48.824;9.220;2023-05-20T14:01:37;25.40;49.60
1716;DHT22;855;48.824;9.220;2023-05-20T14:07:35;26.00;47.90
1716;DHT22;855;48.824;9.220;2023-05-20T14:13:45;26.20;47.30
1716;DHT22;855;48.824;9.220;2023-05-20T14:49:45;25.50;47.80
1716;DHT22;855;48.824;9.220;2023-05-20T14:52:12;25.20;47.80
1716;DHT22;855;48.824;9.220;2023-05-20T14:54:39;25.10;48.90
1716;DHT22;855;48.824;9.220;2023-05-20T14:57:05;25.00;49.10
1716;DHT22;855;48.824;9.220;2023-05-20T14:59:32;24.90;49.80
1716;DHT22;855;48.824;9.220;2023-05-20T15:05:44;25.10;49.80
1716;DHT22;855;48.824;9.220;2023-05-20T15:11:33;25.50;48.40
1716;DHT22;855;48.824;9.220;2023-05-20T15:14:00;25.50;48.80
1716;DHT22;855;48.824;9.220;2023-05-20T15:16:27;25.20;49.40
1716;DHT22;855;48.824;9.220;2023-05-20T15:18:54;25.30;49.40
1716;DHT22;855;48.824;9.220;2023-05-20T15:21:22;25.50;49.30
1716;DHT22;855;48.824;9.220;2023-05-20T15:23:51;25.40;48.80
1716;DHT22;855;48.824;9.220;2023-05-20T15:26:18;25.40;48.60
1716;DHT22;855;48.824;9.220;2023-05-20T15:28:46;25.50;49.40
1716;DHT22;855;48.824;9.220;2023-05-20T15:31:21;25.60;50.10
1716;DHT22;855;48.824;9.220;2023-05-20T15:37:49;25.40;50.30
1716;DHT22;855;48.824;9.220;2023-05-20T15:43:51;25.30;51.20
1716;DHT22;855;48.824;9.220;2023-05-20T17:03:51;25.50;54.20
1716;DHT22;855;48.824;9.220;2023-05-20T17:10:01;25.30;55.80
1716;DHT22;855;48.824;9.220;2023-05-20T17:12:52;25.30;56.00
1716;DHT22;855;48.824;9.220;2023-05-20T17:15:19;25.00;56.30
1716;DHT22;855;48.824;9.220;2023-05-20T17:17:47;24.80;57.00
1716;DHT22;855;48.824;9.220;2023-05-20T17:20:16;24.60;57.90
1716;DHT22;855;48.824;9.220;2023-05-20T17:26:09;24.30;58.90
1716;DHT22;855;48.824;9.220;2023-05-20T17:28:36;24.20;59.40
1716;DHT22;855;48.824;9.220;2023-05-20T17:31:03;24.10;59.90
1716;DHT22;855;48.824;9.220;2023-05-20T17:33:30;24.00;60.10
1716;DHT22;855;48.824;9.220;2023-05-20T17:36:02;24.00;60.10
1716;DHT22;855;48.824;9.220;2023-05-20T17:41:54;24.00;60.10
1716;DHT22;855;48.824;9.220;2023-05-20T17:47:43;24.10;60.30
1716;DHT22;855;48.824;9.220;2023-05-20T17:54:00;24.30;60.30
1716;DHT22;855;48.824;9.220;2023-05-20T17:56:27;24.20;60.10
1716;DHT22;855;48.824;9.220;2023-05-20T17:58:54;24.10;60.60
1716;DHT22;855;48.824;9.220;2023-05-20T18:01:21;24.20;60.40
1716;DHT22;855;48.824;9.220;2023-05-20T18:03:47;24.00;61.00
1716;DHT22;855;48.824;9.220;2023-05-20T18:06:23;23.90;61.10
1716;DHT22;855;48.824;9.220;2023-05-20T18:08:51;23.70;62.20
1716;DHT22;855;48.824;9.220;2023-05-20T18:11:19;23.70;61.80
1716;DHT22;855;48.824;9.220;2023-05-20T18:14:04;23.60;62.00
1716;DHT22;855;48.824;9.220;2023-05-20T18:20:07;23.60;62.60
1716;DHT22;855;48.824;9.220;2023-05-20T18:26:04;23.50;63.00
1716;DHT22;855;48.824;9.220;2023-05-20T18:32:03;23.30;63.40
1716;DHT22;855;48.824;9.220;2023-05-20T18:34:30;23.40;63.20
1716;DHT22;855;48.824;9.220;2023-05-20T18:36:59;23.40;63.20
1716;DHT22;855;48.824;9.220;2023-05-20T18:39:26;23.20;63.50
1716;DHT22;855;48.824;9.220;2023-05-20T18:41:52;23.20;63.90
1716;DHT22;855;48.824;9.220;2023-05-20T18:44:45;23.20;63.90
1716;DHT22;855;48.824;9.220;2023-05-20T18:50:24;23.00;64.50
1716;DHT22;855;48.824;9.220;2023-05-20T18:52:52;22.90;64.90
1716;DHT22;855;48.824;9.220;2023-05-20T18:55:55;22.80;65.70
1716;DHT22;855;48.824;9.220;2023-05-20T18:58:27;22.80;65.90
1716;DHT22;855;48.824;9.220;2023-05-20T19:00:54;22.60;66.50
1716;DHT22;855;48.824;9.220;2023-05-20T19:03:21;22.50;67.10
1716;DHT22;855;48.824;9.220;2023-05-20T19:05:51;22.40;67.50
1716;DHT22;855;48.824;9.220;2023-05-20T19:08:18;22.30;68.10
1716;DHT22;855;48.824;9.220;2023-05-20T19:10:47;22.20;68.50
1716;DHT22;855;48.824;9.220;2023-05-20T19:13:14;22.10;68.90
1716;DHT22;855;48.824;9.220;2023-05-20T19:15:41;22.10;69.20
1716;DHT22;855;48.824;9.220;2023-05-20T19:18:15;22.10;69.30
1716;DHT22;855;48.824;9.220;2023-05-20T19:20:47;22.00;69.60
1716;DHT22;855;48.824;9.220;2023-05-20T19:23:16;22.00;69.60
1716;DHT22;855;48.824;9.220;2023-05-20T19:25:43;22.00;69.60
1716;DHT22;855;48.824;9.220;2023-05-20T19:28:10;22.10;69.40
1716;DHT22;855;48.824;9.220;2023-05-20T19:30:38;22.10;69.60
1716;DHT22;855;48.824;9.220;2023-05-20T19:45:40;21.70;71.00
1716;DHT22;855;48.824;9.220;2023-05-20T19:48:07;21.70;70.90
1716;DHT22;855;48.824;9.220;2023-05-20T19:50:34;21.60;71.60
1716;DHT22;855;48.824;9.220;2023-05-20T19:53:22;21.50;71.70
1716;DHT22;855;48.824;9.220;2023-05-20T19:55:49;21.50;71.90
1716;DHT22;855;48.824;9.220;2023-05-20T19:58:15;21.40;72.10
1716;DHT22;855;48.824;9.220;2023-05-20T20:00:44;21.40;72.10
1716;DHT22;855;48.824;9.220;2023-05-20T20:03:11;21.50;71.80
1716;DHT22;855;48.824;9.220;2023-05-20T20:09:05;21.50;73.10
1716;DHT22;855;48.824;9.220;2023-05-20T20:11:57;21.60;72.70
1716;DHT22;855;48.824;9.220;2023-05-20T20:14:24;21.60;72.60
1716;DHT22;855;48.824;9.220;2023-05-20T20:16:52;21.60;71.90
1716;DHT22;855;48.824;9.220;2023-05-20T20:19:35;21.60;71.80
1716;DHT22;855;48.824;9.220;2023-05-20T20:25:57;21.40;71.90
1716;DHT22;855;48.824;9.220;2023-05-20T20:41:45;21.30;74.10
1716;DHT22;855;48.824;9.220;2023-05-20T20:51:16;21.00;75.50
1716;DHT22;855;48.824;9.220;2023-05-20T20:53:59;20.70;76.60
1716;DHT22;855;48.824;9.220;2023-05-20T20:59:56;20.20;78.80
1716;DHT22;855;48.824;9.220;2023-05-20T21:02:43;20.10;79.00
1716;DHT22;855;48.824;9.220;2023-05-20T21:05:10;20.10;80.70
1716;DHT22;855;48.824;9.220;2023-05-20T21:07:36;19.90;80.40
1716;DHT22;855;48.824;9.220;2023-05-20T21:10:11;19.90;80.10
1716;DHT22;855;48.824;9.220;2023-05-20T21:12:38;20.00;80.30
1716;DHT22;855;48.824;9.220;2023-05-20T21:17:33;20.00;79.50
1716;DHT22;855;48.824;9.220;2023-05-20T21:20:00;19.90;79.90
1716;DHT22;855;48.824;9.220;2023-05-20T21:22:27;19.80;80.00